Time;durP1;ratioP1;P1;durP2;ratioP2;P2;SDS_P1;SDS_P2;PMS_P1;PMS_P2;Temp;Humidity;BMP_temperature;BMP_pressure;BME280_temperature;BME280_humidity;BME280_pressure;Samples;Min_cycle;Max_cycle;Signal;HPM_P1;HPM_P2
2022/03/21 00:01:56;;;;;;;15.40;10.40;;;;;;;1.15;38.08;96643.16;4929586;28;20237;-64
2022/03/21 00:04:23;;;;;;;15.20;10.40;;;;;;;1.19;37.91;96631.78;4907788;29;20712;-64
2022/03/21 00:06:48;;;;;;;17.80;10.23;;;;;;;1.20;37.88;96643.81;4934766;29;20328;-64
2022/03/21 00:09:14;;;;;;;15.77;11.47;;;;;;;1.13;37.90;96637.19;4938316;29;20336;-64
2022/03/21 00:11:39;;;;;;;16.97;12.40;;;;;;;1.15;37.27;96637.97;4940462;28;20233;-64
2022/03/21 00:14:05;;;;;;;18.70;12.60;;;;;;;1.07;37.54;96632.22;4924644;29;20202;-67
2022/03/21 00:16:31;;;;;;;19.67;13.67;;;;;;;1.02;37.78;96636.72;4930755;29;20197;-64
2022/03/21 00:18:56;;;;;;;20.87;14.10;;;;;;;1.06;37.88;96633.94;4925504;29;20233;-64
2022/03/21 00:21:22;;;;;;;17.57;13.97;;;;;;;1.13;37.61;96633.75;4925130;29;20260;-64
2022/03/21 00:23:48;;;;;;;23.60;15.40;;;;;;;0.99;37.17;96626.44;4923460;29;20245;-64
2022/03/21 00:26:15;;;;;;;20.87;15.03;;;;;;;0.90;37.64;96631.97;4922825;29;20297;-64
2022/03/21 00:28:41;;;;;;;20.10;14.70;;;;;;;0.78;38.01;96630.66;4924091;29;20236;-63
2022/03/21 00:31:06;;;;;;;19.57;13.93;;;;;;;0.87;37.38;96636.34;4925006;29;20240;-64
2022/03/21 00:33:32;;;;;;;15.73;12.10;;;;;;;0.84;36.21;96625.25;4940212;29;20225;-64
2022/03/21 00:35:58;;;;;;;14.43;11.40;;;;;;;0.93;35.34;96635.28;4923776;29;20292;-64
2022/03/21 00:38:24;;;;;;;17.07;11.83;;;;;;;1.02;34.64;96624.63;4938252;29;20257;-64
2022/03/21 00:40:50;;;;;;;15.63;12.17;;;;;;;1.01;35.30;96622.06;4910165;29;20218;-64
2022/03/21 00:43:22;;;;;;;17.20;11.87;;;;;;;1.09;35.61;96625.22;4927498;29;20498;-64
2022/03/21 00:45:53;;;;;;;13.97;11.17;;;;;;;1.12;35.26;96625.13;4928812;29;20225;-65
2022/03/21 00:48:23;;;;;;;13.70;11.10;;;;;;;0.83;35.18;96619.25;4927273;29;20229;-64
2022/03/21 00:50:48;;;;;;;15.17;11.13;;;;;;;0.79;35.65;96622.81;4927386;29;20351;-64
2022/03/21 00:53:18;;;;;;;14.93;10.90;;;;;;;0.96;35.59;96623.97;4935128;29;20301;-64
2022/03/21 00:55:45;;;;;;;17.07;11.13;;;;;;;0.77;35.27;96621.19;4927106;29;20205;-64
2022/03/21 00:58:11;;;;;;;17.23;11.37;;;;;;;0.68;36.14;96614.56;4927333;29;20225;-64
2022/03/21 01:00:36;;;;;;;12.93;11.27;;;;;;;0.72;36.27;96615.31;4926571;29;20263;-64
2022/03/21 01:03:03;;;;;;;16.20;11.40;;;;;;;0.49;36.89;96613.53;4940083;28;20241;-65
2022/03/21 01:05:29;;;;;;;13.30;10.60;;;;;;;0.51;37.01;96606.53;4949364;28;20263;-65
2022/03/21 01:07:56;;;;;;;14.80;10.87;;;;;;;0.39;37.56;96611.22;4946664;28;20223;-64
2022/03/21 01:10:22;;;;;;;15.83;11.77;;;;;;;0.29;37.50;96611.56;4930489;29;20228;-62
2022/03/21 01:12:50;;;;;;;15.43;11.50;;;;;;;0.43;37.81;96609.41;4931858;29;20228;-63
2022/03/21 01:15:17;;;;;;;14.67;11.50;;;;;;;0.41;37.52;96601.66;4946184;29;20319;-63
2022/03/21 01:17:44;;;;;;;17.87;11.60;;;;;;;0.31;38.12;96604.63;4928144;29;20228;-62
2022/03/21 01:20:11;;;;;;;15.17;10.97;;;;;;;0.36;38.26;96593.22;4928557;29;20212;-63
2022/03/21 01:22:37;;;;;;;16.80;11.43;;;;;;;0.55;37.75;96585.66;4939450;29;20216;-62
2022/03/21 01:25:03;;;;;;;16.13;10.83;;;;;;;0.60;37.42;96583.78;4935078;29;20224;-62
2022/03/21 01:27:29;;;;;;;15.60;11.53;;;;;;;0.71;36.95;96586.00;4934263;29;20233;-62
2022/03/21 01:29:55;;;;;;;15.60;12.10;;;;;;;0.47;37.14;96590.25;4943368;28;20233;-62
2022/03/21 01:32:21;;;;;;;18.33;11.63;;;;;;;0.46;38.03;96585.16;4930818;29;20235;-63
2022/03/21 01:34:46;;;;;;;17.17;12.00;;;;;;;0.46;38.16;96574.81;4925487;29;20626;-63
2022/03/21 01:37:12;;;;;;;16.03;11.80;;;;;;;0.33;38.10;96580.38;4932989;29;20225;-63
2022/03/21 01:39:38;;;;;;;14.93;10.77;;;;;;;0.29;38.49;96581.38;4936832;29;20379;-62
2022/03/21 01:42:03;;;;;;;15.27;11.90;;;;;;;0.19;39.03;96585.19;4936474;29;20229;-63
2022/03/21 01:44:29;;;;;;;19.30;13.03;;;;;;;0.28;38.73;96582.28;4933127;29;20236;-62
2022/03/21 01:46:54;;;;;;;20.20;13.90;;;;;;;0.15;39.40;96578.41;4931242;29;20212;-63
2022/03/21 01:49:20;;;;;;;20.17;13.63;;;;;;;0.13;39.87;96582.78;4929345;29;20209;-62
2022/03/21 01:51:46;;;;;;;21.93;14.20;;;;;;;0.20;39.11;96567.00;4930683;29;20239;-63
2022/03/21 01:56:57;;;;;;;25.93;15.47;;;;;;;0.31;38.70;96574.41;4951270;29;20248;-63
2022/03/21 01:59:22;;;;;;;21.03;15.27;;;;;;;0.27;39.12;96567.66;4951713;29;20225;-63
2022/03/21 02:01:49;;;;;;;22.13;15.57;;;;;;;0.17;39.73;96572.28;4935154;29;20209;-64
2022/03/21 02:04:15;;;;;;;21.80;15.33;;;;;;;0.12;39.53;96571.59;4931570;29;20232;-64
2022/03/21 02:06:44;;;;;;;20.57;15.50;;;;;;;0.05;39.32;96567.50;4930333;29;20225;-63
2022/03/21 02:09:10;;;;;;;20.33;14.93;;;;;;;0.10;39.19;96573.38;4930439;29;20822;-63
2022/03/21 02:11:37;;;;;;;19.70;14.43;;;;;;;0.11;38.97;96571.66;4932047;29;20232;-63
2022/03/21 02:14:05;;;;;;;20.27;14.27;;;;;;;0.01;39.38;96580.59;4934925;29;20227;-63
2022/03/21 02:16:34;;;;;;;21.93;14.83;;;;;;;-0.07;39.47;96573.09;4953420;28;20208;-64
2022/03/21 02:19:08;;;;;;;21.80;14.87;;;;;;;-0.12;39.66;96582.72;4927822;29;20221;-63
2022/03/21 02:21:56;;;;;;;21.87;14.70;;;;;;;-0.01;39.43;96573.72;4932145;29;20216;-63
2022/03/21 02:24:49;;;;;;;20.00;15.10;;;;;;;0.08;38.78;96570.00;4935928;29;20237;-65
2022/03/21 02:27:16;;;;;;;18.73;14.07;;;;;;;0.04;38.51;96567.56;4933935;29;20232;-63
2022/03/21 02:29:44;;;;;;;20.63;14.97;;;;;;;0.05;38.68;96566.66;4937592;29;20312;-63
2022/03/21 02:32:10;;;;;;;23.33;15.10;;;;;;;-0.04;39.54;96567.81;4937943;28;20205;-62
2022/03/21 02:34:37;;;;;;;18.87;14.93;;;;;;;0.03;38.99;96571.03;4935471;29;20216;-63
2022/03/21 02:37:04;;;;;;;19.77;14.50;;;;;;;0.03;39.38;96578.78;4933368;29;20240;-63
2022/03/21 02:39:30;;;;;;;19.60;14.50;;;;;;;0.14;39.24;96584.47;4945992;28;20245;-63
2022/03/21 02:41:56;;;;;;;18.83;13.40;;;;;;;0.09;39.46;96579.44;4930383;29;20232;-65
2022/03/21 02:44:22;;;;;;;21.67;13.17;;;;;;;0.04;39.21;96585.66;4928361;29;20248;-63
2022/03/21 02:46:48;;;;;;;17.93;14.60;;;;;;;-0.08;39.61;96586.88;4930011;29;20316;-67
2022/03/21 02:49:15;;;;;;;17.10;13.27;;;;;;;-0.11;40.14;96589.56;4946579;29;20229;-66
2022/03/21 02:51:42;;;;;;;17.07;12.43;;;;;;;-0.16;40.31;96579.41;4929838;29;20287;-66
2022/03/21 02:54:09;;;;;;;17.10;12.43;;;;;;;-0.04;40.10;96589.34;4945389;28;20228;-66
2022/03/21 02:56:35;;;;;;;14.20;11.93;;;;;;;0.04;39.23;96591.69;4929600;29;20236;-65
2022/03/21 02:59:01;;;;;;;19.87;12.07;;;;;;;0.10;39.82;96590.63;4927354;29;20205;-66
2022/03/21 03:01:26;;;;;;;14.37;12.03;;;;;;;0.09;39.23;96579.44;4929642;29;20212;-65
2022/03/21 03:03:52;;;;;;;13.60;11.00;;;;;;;0.11;38.36;96585.44;4928391;29;20728;-66
2022/03/21 03:06:18;;;;;;;13.77;11.00;;;;;;;0.02;38.20;96588.28;4934298;29;20229;-67
2022/03/21 03:08:44;;;;;;;13.17;11.10;;;;;;;-0.04;38.89;96585.91;4931367;29;20307;-65
2022/03/21 03:11:10;;;;;;;14.90;10.70;;;;;;;-0.01;39.22;96584.06;4935834;29;20197;-66
2022/03/21 03:13:36;;;;;;;15.30;11.07;;;;;;;0.01;39.77;96581.44;4934474;29;20201;-63
2022/03/21 03:16:02;;;;;;;13.67;10.77;;;;;;;0.03;39.21;96586.53;4935670;29;20221;-63
2022/03/21 03:18:27;;;;;;;13.03;10.30;;;;;;;0.06;39.05;96586.47;4929109;29;20730;-63
2022/03/21 03:20:57;;;;;;;14.87;10.13;;;;;;;0.05;38.78;96587.34;4928376;29;20232;-63
2022/03/21 03:23:26;;;;;;;13.77;10.40;;;;;;;-0.08;38.90;96587.75;4929565;29;20245;-65
2022/03/21 03:26:00;;;;;;;13.57;10.67;;;;;;;-0.16;39.27;96591.44;4950876;29;20213;-66
2022/03/21 03:28:26;;;;;;;15.70;11.03;;;;;;;-0.20;39.60;96589.88;4947227;29;20464;-66
2022/03/21 03:30:52;;;;;;;14.90;11.00;;;;;;;-0.05;38.96;96587.66;4932429;29;20232;-67
2022/03/21 03:33:18;;;;;;;14.27;10.37;;;;;;;-0.07;37.94;96583.44;4929113;29;20224;-66
2022/03/21 03:35:43;;;;;;;15.67;11.70;;;;;;;0.04;38.06;96591.69;4945032;29;20293;-66
2022/03/21 03:38:09;;;;;;;13.37;10.77;;;;;;;0.10;37.92;96583.72;4928123;29;20209;-66
2022/03/21 03:40:37;;;;;;;14.23;10.80;;;;;;;0.11;37.58;96584.59;4933634;29;20288;-66
2022/03/21 03:43:03;;;;;;;15.23;10.83;;;;;;;0.07;37.22;96583.81;4950150;28;20237;-66
2022/03/21 03:45:28;;;;;;;13.53;10.43;;;;;;;0.08;37.48;96585.53;4908972;29;20331;-66
2022/03/21 03:47:53;;;;;;;16.33;11.80;;;;;;;0.00;38.52;96584.94;4928581;29;20237;-66
2022/03/21 03:50:20;;;;;;;15.90;12.00;;;;;;;-0.14;40.07;96582.75;4929120;29;20233;-67
2022/03/21 03:52:47;;;;;;;20.07;12.93;;;;;;;-0.13;40.29;96588.81;4915879;29;20267;-66
2022/03/21 03:55:17;;;;;;;21.57;12.00;;;;;;;-0.35;40.37;96586.00;4924405;29;20705;-66
2022/03/21 03:57:44;;;;;;;14.23;10.93;;;;;;;-0.31;40.28;96587.63;4947372;29;20259;-66
2022/03/21 04:00:12;;;;;;;14.43;11.70;;;;;;;-0.25;40.19;96587.44;4948516;28;20240;-67
2022/03/21 04:05:23;;;;;;;16.00;11.40;;;;;;;-0.05;39.69;96577.31;4908387;29;20299;-67
2022/03/21 04:07:49;;;;;;;24.73;12.23;;;;;;;-0.06;39.87;96569.59;4905449;29;20222;-66
2022/03/21 04:10:16;;;;;;;21.57;11.20;;;;;;;0.02;39.20;96569.34;4889480;29;20289;-67
2022/03/21 04:12:43;;;;;;;14.90;10.87;;;;;;;-0.12;38.90;96569.78;4889701;29;20820;-67
2022/03/21 04:15:09;;;;;;;18.00;11.63;;;;;;;-0.10;38.41;96568.00;4888043;29;20329;-67
2022/03/21 04:17:35;;;;;;;17.57;10.80;;;;;;;-0.11;38.17;96569.72;4913219;29;20229;-67
2022/03/21 04:20:05;;;;;;;17.53;11.80;;;;;;;-0.04;38.82;96562.63;4896593;29;20218;-66
2022/03/21 04:22:30;;;;;;;19.37;11.47;;;;;;;0.06;37.54;96558.84;4900315;29;20261;-67
2022/03/21 04:24:56;;;;;;;22.47;11.13;;;;;;;0.17;36.91;96561.09;4911822;29;20393;-65
2022/03/21 04:27:22;;;;;;;19.57;11.40;;;;;;;0.12;37.10;96573.34;4910011;29;20238;-67
2022/03/21 04:29:48;;;;;;;18.10;10.63;;;;;;;0.16;35.99;96574.91;4909561;29;20314;-67
2022/03/21 04:32:13;;;;;;;17.70;10.73;;;;;;;0.07;36.43;96564.88;4900395;29;20248;-66
2022/03/21 04:34:38;;;;;;;17.00;10.40;;;;;;;0.09;36.10;96574.28;4903641;29;20210;-67
2022/03/21 04:37:04;;;;;;;12.80;9.47;;;;;;;0.17;35.20;96571.44;4896268;29;20226;-66
2022/03/21 04:39:29;;;;;;;13.63;10.27;;;;;;;0.22;35.19;96572.13;4908621;29;20320;-67
2022/03/21 04:41:55;;;;;;;11.57;9.07;;;;;;;0.27;34.69;96575.41;4919135;29;20237;-68
2022/03/21 04:44:20;;;;;;;14.47;9.20;;;;;;;0.29;35.13;96562.41;4948214;29;20308;-68
2022/03/21 04:46:46;;;;;;;12.67;9.37;;;;;;;0.37;34.55;96569.00;4935766;29;20213;-66
2022/03/21 04:49:11;;;;;;;13.47;9.40;;;;;;;0.47;34.71;96572.16;4935859;29;20252;-65
2022/03/21 04:51:37;;;;;;;12.63;9.13;;;;;;;0.48;35.25;96565.22;4934550;29;20298;-62
2022/03/21 04:54:02;;;;;;;15.27;10.57;;;;;;;0.52;35.07;96561.66;4936725;29;20228;-64
2022/03/21 04:56:28;;;;;;;13.17;9.70;;;;;;;0.49;34.42;96561.75;4947430;28;20229;-63
2022/03/21 04:58:53;;;;;;;20.00;11.93;;;;;;;0.43;34.48;96574.00;4933158;28;20252;-63
2022/03/21 05:01:19;;;;;;;15.03;10.27;;;;;;;0.33;34.71;96571.78;4931247;29;20268;-63
2022/03/21 05:03:44;;;;;;;15.50;9.87;;;;;;;0.34;33.94;96574.28;4946385;29;20232;-63
2022/03/21 05:06:10;;;;;;;13.13;9.57;;;;;;;0.48;33.85;96573.00;4932060;29;20232;-63
2022/03/21 05:08:36;;;;;;;14.53;10.03;;;;;;;0.69;34.08;96574.00;4947657;29;20284;-59
2022/03/21 05:11:01;;;;;;;10.90;8.87;;;;;;;0.69;33.67;96574.84;4951162;29;20227;-63
2022/03/21 05:13:28;;;;;;;14.33;9.87;;;;;;;0.77;33.22;96580.59;4943613;28;20240;-63
2022/03/21 05:15:53;;;;;;;12.90;9.67;;;;;;;0.73;33.65;96576.44;4931263;29;20775;-65
2022/03/21 05:18:21;;;;;;;12.03;9.57;;;;;;;0.75;33.67;96585.00;4933212;29;20229;-63
2022/03/21 05:20:47;;;;;;;13.90;9.07;;;;;;;0.72;33.23;96577.31;4926577;29;20324;-62
2022/03/21 05:31:25;;;;;;;16.90;9.07;;;;;;;0.93;33.73;96587.81;4949072;29;20235;-63
2022/03/21 05:36:35;;;;;;;15.23;9.63;;;;;;;1.10;33.35;96585.47;4947496;29;20232;-65
2022/03/21 05:39:01;;;;;;;13.20;9.60;;;;;;;1.20;33.45;96589.41;4930131;29;20226;-64
2022/03/21 05:41:26;;;;;;;12.03;10.17;;;;;;;1.28;33.10;96586.53;4927223;29;20225;-64
2022/03/21 05:43:52;;;;;;;10.80;9.13;;;;;;;1.34;32.99;96594.09;4934223;29;20608;-63
2022/03/21 05:46:18;;;;;;;11.43;9.20;;;;;;;1.38;32.62;96592.22;4935048;29;20236;-65
2022/03/21 05:49:02;;;;;;;11.90;9.33;;;;;;;1.30;32.37;96589.94;4931314;29;20221;-66
2022/03/21 05:51:36;;;;;;;10.87;8.33;;;;;;;1.44;32.39;96592.00;4925748;29;20240;-66
2022/03/21 05:54:05;;;;;;;10.07;7.90;;;;;;;1.54;32.41;96596.78;4924886;29;20224;-66
2022/03/21 05:56:32;;;;;;;11.23;8.80;;;;;;;1.60;31.84;96598.28;4926921;29;20236;-66
2022/03/21 06:00:20;;;;;;;14.77;9.10;;;;;;;1.68;31.69;96590.22;4949151;28;20209;-65
2022/03/21 06:01:51;;;;;;;11.53;8.30;;;;;;;1.81;31.65;96593.19;4949934;29;20227;-64
2022/03/21 06:04:18;;;;;;;9.83;8.10;;;;;;;1.88;31.70;96592.06;4943847;28;20618;-65
2022/03/21 06:06:44;;;;;;;10.70;8.47;;;;;;;1.81;31.25;96588.00;4926340;29;20258;-63
2022/03/21 06:09:10;;;;;;;14.27;9.43;;;;;;;1.96;31.45;96593.44;4927648;29;20235;-66
2022/03/21 06:11:36;;;;;;;11.47;8.53;;;;;;;2.07;31.56;96593.00;4928868;29;20232;-67
2022/03/21 06:14:04;;;;;;;15.43;9.30;;;;;;;1.95;32.04;96591.75;4929498;29;20231;-64
2022/03/21 06:16:30;;;;;;;11.43;8.17;;;;;;;2.02;31.56;96594.94;4939249;29;20212;-66
2022/03/21 06:18:59;;;;;;;10.77;8.30;;;;;;;2.10;31.62;96598.06;4949208;28;20228;-67
2022/03/21 06:21:25;;;;;;;13.80;8.67;;;;;;;2.29;31.23;96605.13;4934736;29;20239;-67
2022/03/21 06:23:51;;;;;;;13.17;8.20;;;;;;;2.27;31.17;96591.34;4929844;29;20232;-68
2022/03/21 06:26:17;;;;;;;12.60;8.20;;;;;;;2.32;31.07;96600.63;4927542;29;20312;-69
2022/03/21 06:28:43;;;;;;;12.57;8.03;;;;;;;2.32;30.80;96605.81;4930248;29;20216;-69
2022/03/21 06:31:08;;;;;;;10.53;7.90;;;;;;;2.44;30.69;96601.91;4929136;29;20319;-69
2022/03/21 06:33:34;;;;;;;12.50;7.87;;;;;;;2.53;30.61;96592.88;4930569;29;20232;-69
2022/03/21 06:36:02;;;;;;;13.77;8.67;;;;;;;2.65;30.28;96595.81;4934037;29;20236;-69
2022/03/21 06:38:28;;;;;;;11.67;8.73;;;;;;;2.64;30.20;96596.69;4935053;29;20224;-67
2022/03/21 06:40:55;;;;;;;13.33;8.73;;;;;;;2.72;30.48;96592.94;4928905;29;20323;-68
2022/03/21 06:43:22;;;;;;;10.30;8.30;;;;;;;2.65;30.58;96582.81;4933602;29;20208;-68
2022/03/21 06:45:51;;;;;;;11.57;8.60;;;;;;;2.74;30.34;96594.56;4946457;28;20220;-68
2022/03/21 06:48:17;;;;;;;12.20;8.77;;;;;;;2.80;30.37;96589.09;4931377;29;20231;-69
2022/03/21 06:50:46;;;;;;;9.50;8.43;;;;;;;2.88;30.19;96591.38;4934831;29;20221;-68
2022/03/21 06:53:11;;;;;;;10.23;8.30;;;;;;;2.91;29.88;96593.84;4930432;29;20218;-68
2022/03/21 06:55:37;;;;;;;12.70;9.10;;;;;;;2.84;30.08;96600.22;4933946;29;20212;-68
2022/03/21 06:58:03;;;;;;;12.83;8.47;;;;;;;2.92;30.18;96592.94;4929030;29;20268;-69
2022/03/21 07:00:29;;;;;;;14.53;9.40;;;;;;;3.10;29.76;96599.06;4922495;29;20217;-69
2022/03/21 07:02:55;;;;;;;12.53;9.33;;;;;;;3.15;29.71;96597.13;4942311;29;20320;-66
2022/03/21 07:05:21;;;;;;;13.57;9.00;;;;;;;3.24;30.08;96590.69;4926219;29;20240;-65
2022/03/21 07:07:47;;;;;;;10.73;8.80;;;;;;;3.41;29.48;96588.16;4933002;29;20212;-66
2022/03/21 07:10:12;;;;;;;11.43;9.47;;;;;;;3.32;29.68;96599.00;4934213;29;20229;-65
2022/03/21 07:12:38;;;;;;;14.40;9.20;;;;;;;3.46;29.28;96591.41;4928808;29;20231;-65
2022/03/21 07:15:04;;;;;;;11.93;9.80;;;;;;;3.41;29.79;96582.97;4930540;29;20225;-64
2022/03/21 07:17:31;;;;;;;14.90;10.10;;;;;;;3.39;29.35;96586.53;4939173;29;20291;-65
2022/03/21 07:19:56;;;;;;;12.20;9.63;;;;;;;3.46;29.29;96575.78;4946878;28;20211;-65
2022/03/21 07:22:22;;;;;;;15.63;11.07;;;;;;;3.50;29.31;96577.34;4944248;29;20201;-64
2022/03/21 07:24:47;;;;;;;12.83;9.37;;;;;;;3.59;29.47;96583.03;4921583;29;20233;-64
2022/03/21 07:27:13;;;;;;;12.20;9.03;;;;;;;3.68;29.18;96572.19;4931325;29;20253;-64
2022/03/21 07:29:38;;;;;;;15.47;9.27;;;;;;;3.72;29.58;96579.78;4937002;29;20229;-64
2022/03/21 07:32:04;;;;;;;11.57;9.50;;;;;;;3.84;29.28;96569.72;4946552;28;20208;-65
2022/03/21 07:34:30;;;;;;;13.23;9.57;;;;;;;3.94;28.54;96566.59;4949368;28;20213;-65
2022/03/21 07:36:56;;;;;;;13.43;9.53;;;;;;;3.95;29.19;96565.69;4929504;29;20224;-67
2022/03/21 07:39:22;;;;;;;10.57;9.47;;;;;;;3.98;28.73;96573.38;4944475;29;20307;-65
2022/03/21 07:41:47;;;;;;;10.17;8.73;;;;;;;4.01;29.11;96566.31;4927040;29;20243;-66
2022/03/21 07:47:17;;;;;;;13.50;9.80;;;;;;;4.08;28.69;96571.16;4932048;29;20242;-67
2022/03/21 07:49:43;;;;;;;12.77;10.03;;;;;;;4.17;28.76;96556.84;4945952;29;20262;-63
2022/03/21 07:52:09;;;;;;;11.87;9.40;;;;;;;4.14;28.78;96552.66;4924283;29;20255;-65
2022/03/21 07:54:35;;;;;;;11.47;9.97;;;;;;;4.29;28.17;96547.59;4929182;29;20221;-64
2022/03/21 07:57:00;;;;;;;11.27;9.57;;;;;;;4.33;28.22;96549.97;4926673;29;20256;-65
2022/03/21 07:59:25;;;;;;;13.70;10.57;;;;;;;4.30;28.72;96546.66;4927611;29;20233;-65
2022/03/21 08:01:51;;;;;;;15.27;11.03;;;;;;;4.34;28.61;96548.22;4929136;28;20236;-64
2022/03/21 08:04:17;;;;;;;14.23;10.70;;;;;;;4.34;28.55;96551.66;4933123;29;20260;-67
2022/03/21 08:06:44;;;;;;;16.53;9.83;;;;;;;4.49;28.48;96543.97;4926319;29;20261;-65
2022/03/21 08:09:09;;;;;;;13.20;9.60;;;;;;;4.54;28.17;96536.78;4926423;29;20237;-64
2022/03/21 08:11:35;;;;;;;13.57;10.30;;;;;;;4.67;28.28;96543.06;4928758;28;20235;-64
2022/03/21 08:14:00;;;;;;;13.03;10.13;;;;;;;4.81;27.88;96538.00;4948118;29;20203;-65
2022/03/21 08:16:25;;;;;;;13.57;9.00;;;;;;;4.85;27.48;96538.69;4932333;29;20239;-64
2022/03/21 08:18:52;;;;;;;13.30;10.10;;;;;;;4.85;26.92;96538.69;4947405;28;20229;-66
2022/03/21 08:21:18;;;;;;;14.40;9.90;;;;;;;4.78;27.67;96530.31;4930078;29;20229;-63
2022/03/21 08:23:45;;;;;;;12.10;9.40;;;;;;;4.90;27.68;96533.22;4944747;28;20225;-65
2022/03/21 08:26:11;;;;;;;13.03;9.87;;;;;;;4.97;27.38;96543.25;4948169;28;20205;-64
2022/03/21 08:28:36;;;;;;;12.17;9.77;;;;;;;5.00;27.73;96531.84;4927196;29;20591;-63
2022/03/21 08:31:02;;;;;;;12.00;9.30;;;;;;;5.15;27.43;96535.38;4929862;29;20226;-64
2022/03/21 08:33:28;;;;;;;13.47;11.17;;;;;;;5.07;27.70;96530.56;4927909;29;20228;-66
2022/03/21 08:35:54;;;;;;;13.47;11.00;;;;;;;4.97;27.45;96537.19;4927751;29;20229;-66
2022/03/21 08:38:19;;;;;;;14.13;10.83;;;;;;;4.93;27.92;96533.06;4918527;29;20729;-65
2022/03/21 08:40:45;;;;;;;12.80;10.80;;;;;;;5.13;27.49;96539.81;4914849;29;20213;-62
2022/03/21 08:43:10;;;;;;;12.80;10.53;;;;;;;5.37;27.64;96529.84;4943103;28;20221;-62
2022/03/21 08:45:36;;;;;;;13.63;10.10;;;;;;;5.47;27.21;96508.41;4926985;29;20467;-63
2022/03/21 08:48:03;;;;;;;16.37;10.20;;;;;;;5.46;27.04;96524.16;4927085;29;20295;-62
2022/03/21 08:50:29;;;;;;;14.77;9.17;;;;;;;5.63;27.18;96512.78;4908225;29;20338;-62
2022/03/21 08:52:57;;;;;;;12.93;9.63;;;;;;;5.68;26.90;96521.19;4930200;29;20216;-63
2022/03/21 08:55:23;;;;;;;11.97;9.20;;;;;;;5.85;26.70;96510.66;4932421;29;20210;-64
2022/03/21 08:57:48;;;;;;;14.47;9.33;;;;;;;5.96;26.75;96503.09;4946731;28;20284;-62
2022/03/21 09:00:14;;;;;;;15.67;9.63;;;;;;;6.22;26.53;96498.13;4931827;29;20373;-64
2022/03/21 09:02:41;;;;;;;15.20;10.00;;;;;;;6.36;26.28;96492.09;4927103;29;20246;-64
2022/03/21 09:05:12;;;;;;;15.63;9.87;;;;;;;6.19;26.16;96504.38;4912281;29;20222;-68
2022/03/21 09:07:39;;;;;;;11.23;9.00;;;;;;;6.37;26.06;96505.09;4922525;29;20214;-67
2022/03/21 09:10:05;;;;;;;10.83;8.53;;;;;;;6.22;25.76;96503.38;4924625;29;20230;-66
2022/03/21 09:12:32;;;;;;;14.77;9.50;;;;;;;6.19;25.51;96506.16;4932822;29;20244;-68
2022/03/21 09:14:57;;;;;;;11.90;9.43;;;;;;;6.38;25.71;96505.94;4924372;29;20316;-67
2022/03/21 09:17:23;;;;;;;13.03;9.20;;;;;;;6.34;25.72;96507.88;4942074;29;20233;-63
2022/03/21 09:19:49;;;;;;;11.20;9.07;;;;;;;6.46;25.91;96506.31;4929866;29;20716;-68
2022/03/21 09:22:14;;;;;;;11.03;9.60;;;;;;;6.57;25.72;96510.91;4931934;29;20628;-64
2022/03/21 09:24:40;;;;;;;14.63;8.63;;;;;;;6.84;25.24;96498.84;4926998;29;20253;-64
2022/03/21 09:27:05;;;;;;;13.40;8.97;;;;;;;6.92;25.02;96498.34;4928416;29;20241;-63
2022/03/21 09:29:31;;;;;;;12.20;8.90;;;;;;;7.08;24.70;96503.47;4950730;28;20249;-63
2022/03/21 09:31:56;;;;;;;11.13;8.37;;;;;;;7.12;24.28;96504.16;4931656;29;20244;-64
2022/03/21 09:34:22;;;;;;;13.03;8.90;;;;;;;7.35;24.51;96505.34;4934228;29;20198;-64
2022/03/21 09:36:48;;;;;;;14.00;8.33;;;;;;;7.50;23.75;96493.91;4933097;29;20233;-67
2022/03/21 09:39:14;;;;;;;11.40;8.50;;;;;;;7.35;23.89;96508.81;4930660;29;20233;-67
2022/03/21 09:41:40;;;;;;;13.17;9.33;;;;;;;7.31;24.01;96499.47;4931516;29;20230;-67
2022/03/21 09:44:09;;;;;;;10.77;8.50;;;;;;;7.49;23.61;96507.94;4926599;29;20232;-66
2022/03/21 09:46:37;;;;;;;13.40;9.10;;;;;;;7.44;24.00;96500.38;4931002;29;20216;-68
2022/03/21 09:49:03;;;;;;;11.97;9.07;;;;;;;7.21;23.94;96503.56;4932060;29;20233;-67
2022/03/21 09:51:30;;;;;;;13.07;9.33;;;;;;;7.41;23.89;96492.72;4941730;29;20260;-63
2022/03/21 09:53:57;;;;;;;11.33;9.23;;;;;;;7.68;23.32;96491.91;4924208;29;20229;-64
2022/03/21 09:56:24;;;;;;;10.20;8.37;;;;;;;7.81;23.14;96492.81;4944571;28;20740;-65
2022/03/21 09:58:51;;;;;;;9.70;8.40;;;;;;;8.15;22.70;96493.22;4928415;29;20228;-67
2022/03/21 10:01:17;;;;;;;8.77;7.80;;;;;;;8.11;22.91;96492.59;4924480;29;20233;-63
2022/03/21 10:03:44;;;;;;;10.37;8.80;;;;;;;8.27;22.41;96497.66;4938464;28;20727;-65
2022/03/21 10:06:32;;;;;;;12.00;9.03;;;;;;;8.32;22.47;96500.81;4947210;29;20344;-65
2022/03/21 10:09:05;;;;;;;10.17;8.23;;;;;;;8.59;22.39;96492.94;4945539;29;20279;-64
2022/03/21 10:11:32;;;;;;;10.20;8.87;;;;;;;8.52;22.50;96488.19;4942517;29;20237;-65
2022/03/21 10:13:57;;;;;;;11.80;8.57;;;;;;;8.39;22.38;96493.41;4922004;28;20236;-64
2022/03/21 10:16:23;;;;;;;11.90;8.43;;;;;;;8.64;21.97;96476.91;4925416;29;20241;-64
2022/03/21 10:18:51;;;;;;;10.97;8.00;;;;;;;8.57;22.11;96479.06;4926074;29;20240;-67
2022/03/21 10:21:17;;;;;;;14.77;9.37;;;;;;;8.53;22.30;96467.13;4943824;29;20225;-63
2022/03/21 10:23:45;;;;;;;16.77;8.23;;;;;;;8.59;21.94;96479.81;4929296;29;20244;-64
2022/03/21 10:26:29;;;;;;;13.87;9.53;;;;;;;8.78;21.94;96479.41;4924117;29;20209;-64
2022/03/21 10:28:56;;;;;;;10.33;8.10;;;;;;;8.96;21.32;96479.09;4925610;29;20300;-65
2022/03/21 10:31:34;;;;;;;13.00;9.23;;;;;;;9.09;21.72;96479.06;4926481;29;20277;-63
2022/03/21 10:34:08;;;;;;;9.17;8.20;;;;;;;9.30;21.59;96484.59;4925964;29;20214;-63
2022/03/21 10:36:33;;;;;;;12.07;8.73;;;;;;;9.32;21.36;96480.09;4923521;29;20233;-63
2022/03/21 10:39:10;;;;;;;9.57;8.40;;;;;;;9.49;20.80;96475.34;4926616;29;20293;-68
2022/03/21 10:41:37;;;;;;;10.47;7.60;;;;;;;9.52;21.09;96476.91;4928406;29;20256;-63
2022/03/21 10:44:04;;;;;;;12.10;8.67;;;;;;;9.75;20.74;96463.91;4924106;28;20292;-66
2022/03/21 10:46:30;;;;;;;9.03;8.10;;;;;;;9.89;20.51;96453.22;4925572;29;20217;-67
2022/03/21 10:49:09;;;;;;;11.47;8.87;;;;;;;9.63;20.12;96463.84;4924234;29;20229;-65
2022/03/21 10:51:53;;;;;;;8.83;7.73;;;;;;;9.87;20.29;96453.34;4925679;29;20325;-65
2022/03/21 10:54:43;;;;;;;10.63;8.07;;;;;;;9.76;20.58;96450.66;4937101;29;20324;-66
2022/03/21 10:57:28;;;;;;;8.83;7.63;;;;;;;9.65;20.81;96448.81;4923904;29;20236;-67
2022/03/21 11:00:12;;;;;;;9.80;8.57;;;;;;;9.33;21.29;96459.00;4932140;29;20235;-65
2022/03/21 11:02:52;;;;;;;11.77;9.10;;;;;;;9.49;21.29;96456.13;4931836;29;20757;-64
2022/03/21 11:05:19;;;;;;;11.67;8.73;;;;;;;9.80;21.29;96435.50;4928414;29;20236;-67
2022/03/21 11:07:45;;;;;;;11.47;9.20;;;;;;;10.15;21.30;96430.28;4932110;29;20225;-66
2022/03/21 11:10:11;;;;;;;11.87;9.10;;;;;;;10.43;20.39;96423.81;4927503;29;20742;-66
2022/03/21 11:12:39;;;;;;;11.07;9.03;;;;;;;10.24;20.62;96424.34;4935537;29;20267;-68
2022/03/21 11:15:06;;;;;;;12.40;9.77;;;;;;;10.16;20.76;96426.72;4948564;28;20287;-63
2022/03/21 11:17:32;;;;;;;12.17;9.13;;;;;;;10.57;20.86;96423.59;4925869;29;20229;-65
2022/03/21 11:20:00;;;;;;;11.50;8.70;;;;;;;10.80;19.93;96413.94;4929248;29;20287;-66
2022/03/21 11:22:26;;;;;;;10.10;9.00;;;;;;;10.81;19.90;96414.78;4930129;29;20233;-67
2022/03/21 11:24:52;;;;;;;11.10;8.33;;;;;;;10.46;20.46;96406.97;4929700;29;20224;-65
2022/03/21 11:27:31;;;;;;;8.87;7.97;;;;;;;10.66;20.22;96414.16;4920528;29;20249;-67
2022/03/21 11:30:26;;;;;;;11.70;8.83;;;;;;;11.34;19.60;96412.38;4929641;29;20220;-69
2022/03/21 11:33:12;;;;;;;9.63;8.10;;;;;;;11.22;19.00;96402.78;4931649;29;20236;-69
2022/03/21 11:35:43;;;;;;;10.33;8.40;;;;;;;11.38;19.02;96400.59;4929163;29;20647;-66
2022/03/21 11:38:27;;;;;;;12.77;8.00;;;;;;;11.60;18.34;96399.75;4929402;29;20213;-69
2022/03/21 11:41:23;;;;;;;8.33;6.83;;;;;;;11.76;18.40;96390.56;4941347;28;20278;-67
2022/03/21 11:44:04;;;;;;;10.13;8.13;;;;;;;11.41;18.76;96395.13;4940775;28;20209;-70
2022/03/21 11:46:31;;;;;;;10.95;8.07;;;;;;;11.54;18.68;96386.22;4943798;28;20232;-67
2022/03/21 11:49:01;;;;;;;8.43;7.10;;;;;;;11.82;18.58;96384.81;4946582;29;20228;-64
2022/03/21 11:51:40;;;;;;;8.03;7.07;;;;;;;11.76;18.45;96378.25;4933137;29;20232;-64